sensor_id;sensor_type;location;lat;lon;timestamp;P1;durP1;ratioP1;P2;durP2;ratioP2
10687;SDS011;5392;42.688;23.298;2023-10-19T00:02:46;23.40;;;16.70;;
10687;SDS011;5392;42.688;23.298;2023-10-19T00:05:13;20.17;;;16.38;;
10687;SDS011;5392;42.688;23.298;2023-10-19T00:07:41;20.85;;;16.10;;
10687;SDS011;5392;42.688;23.298;2023-10-19T00:10:08;19.95;;;15.70;;
10687;SDS011;5392;42.688;23.298;2023-10-19T00:12:36;25.33;;;16.38;;
10687;SDS011;5392;42.688;23.298;2023-10-19T00:15:03;20.25;;;17.10;;
10687;SDS011;5392;42.688;23.298;2023-10-19T00:17:31;24.35;;;18.65;;
10687;SDS011;5392;42.688;23.298;2023-10-19T00:19:59;25.42;;;17.10;;
10687;SDS011;5392;42.688;23.298;2023-10-19T00:22:44;25.95;;;17.35;;
10687;SDS011;5392;42.688;23.298;2023-10-19T00:25:10;25.42;;;17.33;;
10687;SDS011;5392;42.688;23.298;2023-10-19T00:27:39;22.45;;;17.58;;
10687;SDS011;5392;42.688;23.298;2023-10-19T00:30:09;23.30;;;17.55;;
10687;SDS011;5392;42.688;23.298;2023-10-19T00:32:37;23.88;;;17.25;;
10687;SDS011;5392;42.688;23.298;2023-10-19T00:35:05;22.63;;;17.80;;
10687;SDS011;5392;42.688;23.298;2023-10-19T00:37:47;22.83;;;17.52;;
10687;SDS011;5392;42.688;23.298;2023-10-19T00:40:15;23.40;;;17.98;;
10687;SDS011;5392;42.688;23.298;2023-10-19T00:42:53;27.27;;;18.80;;
10687;SDS011;5392;42.688;23.298;2023-10-19T00:45:21;23.60;;;17.83;;
10687;SDS011;5392;42.688;23.298;2023-10-19T00:47:53;22.38;;;16.88;;
10687;SDS011;5392;42.688;23.298;2023-10-19T00:50:19;22.60;;;17.45;;
10687;SDS011;5392;42.688;23.298;2023-10-19T00:52:49;22.60;;;17.63;;
10687;SDS011;5392;42.688;23.298;2023-10-19T00:55:16;24.27;;;17.48;;
10687;SDS011;5392;42.688;23.298;2023-10-19T00:57:45;21.80;;;17.38;;
10687;SDS011;5392;42.688;23.298;2023-10-19T01:00:15;23.85;;;18.33;;
10687;SDS011;5392;42.688;23.298;2023-10-19T01:02:56;21.88;;;17.60;;
10687;SDS011;5392;42.688;23.298;2023-10-19T01:05:27;23.60;;;17.63;;
10687;SDS011;5392;42.688;23.298;2023-10-19T01:08:03;25.05;;;17.92;;
10687;SDS011;5392;42.688;23.298;2023-10-19T01:10:40;28.23;;;18.25;;
10687;SDS011;5392;42.688;23.298;2023-10-19T01:13:06;23.85;;;17.65;;
10687;SDS011;5392;42.688;23.298;2023-10-19T01:15:33;23.58;;;18.55;;
10687;SDS011;5392;42.688;23.298;2023-10-19T01:18:03;22.73;;;17.67;;
10687;SDS011;5392;42.688;23.298;2023-10-19T01:20:31;29.50;;;16.95;;
10687;SDS011;5392;42.688;23.298;2023-10-19T01:23:02;23.60;;;18.38;;
10687;SDS011;5392;42.688;23.298;2023-10-19T01:28:24;22.95;;;17.85;;
10687;SDS011;5392;42.688;23.298;2023-10-19T01:30:55;22.98;;;17.23;;
10687;SDS011;5392;42.688;23.298;2023-10-19T01:33:21;23.98;;;18.13;;
10687;SDS011;5392;42.688;23.298;2023-10-19T01:35:49;22.90;;;17.55;;
10687;SDS011;5392;42.688;23.298;2023-10-19T01:38:34;22.13;;;17.92;;
10687;SDS011;5392;42.688;23.298;2023-10-19T01:41:01;23.80;;;18.27;;
10687;SDS011;5392;42.688;23.298;2023-10-19T01:43:48;26.75;;;18.58;;
10687;SDS011;5392;42.688;23.298;2023-10-19T01:46:17;24.15;;;19.50;;
10687;SDS011;5392;42.688;23.298;2023-10-19T01:49:16;27.88;;;20.10;;
10687;SDS011;5392;42.688;23.298;2023-10-19T01:52:03;55.50;;;38.13;;
10687;SDS011;5392;42.688;23.298;2023-10-19T01:54:30;65.53;;;44.47;;
10687;SDS011;5392;42.688;23.298;2023-10-19T01:56:57;60.42;;;43.50;;
10687;SDS011;5392;42.688;23.298;2023-10-19T01:59:24;53.15;;;39.38;;
10687;SDS011;5392;42.688;23.298;2023-10-19T02:01:54;51.55;;;37.47;;
10687;SDS011;5392;42.688;23.298;2023-10-19T02:04:21;57.75;;;38.35;;
10687;SDS011;5392;42.688;23.298;2023-10-19T02:06:48;44.97;;;34.42;;
10687;SDS011;5392;42.688;23.298;2023-10-19T02:09:16;42.65;;;32.05;;
10687;SDS011;5392;42.688;23.298;2023-10-19T02:11:52;47.28;;;31.85;;
10687;SDS011;5392;42.688;23.298;2023-10-19T02:14:20;42.05;;;32.63;;
10687;SDS011;5392;42.688;23.298;2023-10-19T02:16:48;44.13;;;32.33;;
10687;SDS011;5392;42.688;23.298;2023-10-19T02:19:18;41.47;;;30.42;;
10687;SDS011;5392;42.688;23.298;2023-10-19T02:21:50;40.88;;;31.25;;
10687;SDS011;5392;42.688;23.298;2023-10-19T02:24:18;39.50;;;28.02;;
10687;SDS011;5392;42.688;23.298;2023-10-19T02:26:46;41.45;;;29.33;;
10687;SDS011;5392;42.688;23.298;2023-10-19T02:29:13;37.72;;;27.30;;
10687;SDS011;5392;42.688;23.298;2023-10-19T02:31:40;39.38;;;28.80;;
10687;SDS011;5392;42.688;23.298;2023-10-19T02:34:07;39.72;;;27.52;;
10687;SDS011;5392;42.688;23.298;2023-10-19T02:36:39;38.03;;;27.23;;
10687;SDS011;5392;42.688;23.298;2023-10-19T02:39:07;42.45;;;26.25;;
10687;SDS011;5392;42.688;23.298;2023-10-19T02:44:03;45.72;;;28.38;;
10687;SDS011;5392;42.688;23.298;2023-10-19T02:46:31;38.08;;;27.02;;
10687;SDS011;5392;42.688;23.298;2023-10-19T02:49:01;37.83;;;26.83;;
10687;SDS011;5392;42.688;23.298;2023-10-19T02:51:30;41.20;;;27.48;;
10687;SDS011;5392;42.688;23.298;2023-10-19T02:53:56;41.30;;;28.02;;
10687;SDS011;5392;42.688;23.298;2023-10-19T02:56:25;38.13;;;25.83;;
10687;SDS011;5392;42.688;23.298;2023-10-19T02:58:53;39.47;;;27.25;;
10687;SDS011;5392;42.688;23.298;2023-10-19T03:01:20;38.13;;;26.88;;
10687;SDS011;5392;42.688;23.298;2023-10-19T03:03:57;38.28;;;28.02;;
10687;SDS011;5392;42.688;23.298;2023-10-19T03:06:27;43.38;;;28.20;;
10687;SDS011;5392;42.688;23.298;2023-10-19T03:09:03;44.28;;;28.23;;
10687;SDS011;5392;42.688;23.298;2023-10-19T03:11:40;45.33;;;29.00;;
10687;SDS011;5392;42.688;23.298;2023-10-19T03:14:08;44.30;;;29.23;;
10687;SDS011;5392;42.688;23.298;2023-10-19T03:16:36;41.45;;;28.80;;
10687;SDS011;5392;42.688;23.298;2023-10-19T03:19:03;43.28;;;27.73;;
10687;SDS011;5392;42.688;23.298;2023-10-19T03:21:30;43.50;;;28.92;;
10687;SDS011;5392;42.688;23.298;2023-10-19T03:24:00;48.20;;;29.30;;
10687;SDS011;5392;42.688;23.298;2023-10-19T03:26:39;43.25;;;27.80;;
10687;SDS011;5392;42.688;23.298;2023-10-19T03:29:15;48.10;;;30.80;;
10687;SDS011;5392;42.688;23.298;2023-10-19T03:31:44;47.65;;;29.00;;
10687;SDS011;5392;42.688;23.298;2023-10-19T03:34:12;39.97;;;27.45;;
10687;SDS011;5392;42.688;23.298;2023-10-19T03:36:39;43.28;;;26.80;;
10687;SDS011;5392;42.688;23.298;2023-10-19T03:39:06;49.78;;;27.20;;
10687;SDS011;5392;42.688;23.298;2023-10-19T03:41:41;45.25;;;27.67;;
10687;SDS011;5392;42.688;23.298;2023-10-19T03:44:08;43.55;;;28.33;;
10687;SDS011;5392;42.688;23.298;2023-10-19T03:46:43;45.28;;;28.05;;
10687;SDS011;5392;42.688;23.298;2023-10-19T03:49:19;43.70;;;27.48;;
10687;SDS011;5392;42.688;23.298;2023-10-19T03:51:47;42.97;;;27.45;;
10687;SDS011;5392;42.688;23.298;2023-10-19T03:54:37;43.35;;;27.67;;
10687;SDS011;5392;42.688;23.298;2023-10-19T03:57:07;49.70;;;28.02;;
10687;SDS011;5392;42.688;23.298;2023-10-19T03:59:38;41.90;;;25.85;;
10687;SDS011;5392;42.688;23.298;2023-10-19T04:02:05;39.72;;;26.48;;
10687;SDS011;5392;42.688;23.298;2023-10-19T04:04:37;45.50;;;27.17;;
10687;SDS011;5392;42.688;23.298;2023-10-19T04:07:06;43.92;;;27.88;;
10687;SDS011;5392;42.688;23.298;2023-10-19T04:09:48;40.85;;;27.20;;
10687;SDS011;5392;42.688;23.298;2023-10-19T04:12:24;40.72;;;26.60;;
10687;SDS011;5392;42.688;23.298;2023-10-19T04:14:50;37.75;;;25.60;;
10687;SDS011;5392;42.688;23.298;2023-10-19T04:17:17;39.13;;;26.40;;
10687;SDS011;5392;42.688;23.298;2023-10-19T04:19:47;38.00;;;25.52;;
10687;SDS011;5392;42.688;23.298;2023-10-19T04:22:18;40.20;;;27.13;;
10687;SDS011;5392;42.688;23.298;2023-10-19T04:24:51;39.47;;;24.67;;
10687;SDS011;5392;42.688;23.298;2023-10-19T04:27:18;43.45;;;28.42;;
10687;SDS011;5392;42.688;23.298;2023-10-19T04:29:48;47.42;;;29.95;;
10687;SDS011;5392;42.688;23.298;2023-10-19T04:32:16;50.38;;;29.92;;
10687;SDS011;5392;42.688;23.298;2023-10-19T04:34:52;42.88;;;29.70;;
10687;SDS011;5392;42.688;23.298;2023-10-19T04:37:19;44.53;;;29.48;;
10687;SDS011;5392;42.688;23.298;2023-10-19T04:39:45;49.65;;;30.02;;
10687;SDS011;5392;42.688;23.298;2023-10-19T04:42:12;57.33;;;31.98;;
10687;SDS011;5392;42.688;23.298;2023-10-19T04:44:39;50.15;;;31.08;;
10687;SDS011;5392;42.688;23.298;2023-10-19T04:47:06;46.30;;;30.15;;
10687;SDS011;5392;42.688;23.298;2023-10-19T04:49:33;49.97;;;32.53;;
10687;SDS011;5392;42.688;23.298;2023-10-19T04:51:59;59.85;;;33.58;;
10687;SDS011;5392;42.688;23.298;2023-10-19T04:54:26;56.33;;;33.72;;
10687;SDS011;5392;42.688;23.298;2023-10-19T04:56:53;53.50;;;33.83;;
10687;SDS011;5392;42.688;23.298;2023-10-19T04:59:22;45.40;;;30.75;;
10687;SDS011;5392;42.688;23.298;2023-10-19T05:01:48;50.70;;;32.17;;
10687;SDS011;5392;42.688;23.298;2023-10-19T05:04:17;54.88;;;35.40;;
10687;SDS011;5392;42.688;23.298;2023-10-19T05:06:43;56.35;;;34.15;;
10687;SDS011;5392;42.688;23.298;2023-10-19T05:09:10;58.97;;;34.28;;
10687;SDS011;5392;42.688;23.298;2023-10-19T05:11:38;50.05;;;32.88;;
10687;SDS011;5392;42.688;23.298;2023-10-19T05:14:06;52.22;;;33.05;;
10687;SDS011;5392;42.688;23.298;2023-10-19T05:16:32;49.80;;;33.95;;
10687;SDS011;5392;42.688;23.298;2023-10-19T05:18:59;50.60;;;32.03;;
10687;SDS011;5392;42.688;23.298;2023-10-19T05:21:26;45.80;;;30.40;;
10687;SDS011;5392;42.688;23.298;2023-10-19T05:23:52;45.83;;;29.20;;
10687;SDS011;5392;42.688;23.298;2023-10-19T05:26:19;40.70;;;25.02;;
10687;SDS011;5392;42.688;23.298;2023-10-19T05:28:46;36.63;;;23.40;;
10687;SDS011;5392;42.688;23.298;2023-10-19T05:31:14;33.63;;;21.70;;
10687;SDS011;5392;42.688;23.298;2023-10-19T05:33:41;32.55;;;18.77;;
10687;SDS011;5392;42.688;23.298;2023-10-19T05:36:08;39.92;;;17.73;;
10687;SDS011;5392;42.688;23.298;2023-10-19T05:38:34;27.58;;;17.35;;
10687;SDS011;5392;42.688;23.298;2023-10-19T05:41:01;22.08;;;15.52;;
10687;SDS011;5392;42.688;23.298;2023-10-19T05:43:29;32.25;;;17.20;;
10687;SDS011;5392;42.688;23.298;2023-10-19T05:45:57;33.03;;;21.67;;
10687;SDS011;5392;42.688;23.298;2023-10-19T05:48:23;32.60;;;19.30;;
10687;SDS011;5392;42.688;23.298;2023-10-19T05:50:50;25.60;;;17.75;;
10687;SDS011;5392;42.688;23.298;2023-10-19T05:53:17;32.35;;;17.83;;
10687;SDS011;5392;42.688;23.298;2023-10-19T05:55:45;32.05;;;17.60;;
10687;SDS011;5392;42.688;23.298;2023-10-19T05:58:12;34.85;;;19.13;;
10687;SDS011;5392;42.688;23.298;2023-10-19T06:00:39;30.95;;;18.77;;
10687;SDS011;5392;42.688;23.298;2023-10-19T06:03:05;33.03;;;17.83;;
10687;SDS011;5392;42.688;23.298;2023-10-19T06:05:32;31.52;;;19.00;;
10687;SDS011;5392;42.688;23.298;2023-10-19T06:07:58;29.25;;;18.88;;
10687;SDS011;5392;42.688;23.298;2023-10-19T06:10:27;25.05;;;19.17;;
10687;SDS011;5392;42.688;23.298;2023-10-19T06:12:54;32.70;;;19.13;;
10687;SDS011;5392;42.688;23.298;2023-10-19T06:15:21;32.58;;;21.05;;
10687;SDS011;5392;42.688;23.298;2023-10-19T06:17:49;29.83;;;20.35;;
10687;SDS011;5392;42.688;23.298;2023-10-19T06:20:16;30.38;;;18.90;;
10687;SDS011;5392;42.688;23.298;2023-10-19T06:22:46;26.05;;;18.33;;
10687;SDS011;5392;42.688;23.298;2023-10-19T06:25:20;27.58;;;18.55;;
10687;SDS011;5392;42.688;23.298;2023-10-19T06:27:48;24.52;;;18.40;;
10687;SDS011;5392;42.688;23.298;2023-10-19T06:30:15;23.30;;;18.23;;
10687;SDS011;5392;42.688;23.298;2023-10-19T06:32:46;25.05;;;17.45;;
10687;SDS011;5392;42.688;23.298;2023-10-19T06:35:14;29.58;;;19.08;;
10687;SDS011;5392;42.688;23.298;2023-10-19T06:37:40;26.77;;;19.48;;
10687;SDS011;5392;42.688;23.298;2023-10-19T06:40:07;27.15;;;18.60;;
10687;SDS011;5392;42.688;23.298;2023-10-19T06:42:34;27.38;;;18.90;;
10687;SDS011;5392;42.688;23.298;2023-10-19T06:45:01;26.20;;;17.90;;
10687;SDS011;5392;42.688;23.298;2023-10-19T06:47:28;24.98;;;18.73;;
10687;SDS011;5392;42.688;23.298;2023-10-19T06:49:55;24.17;;;17.30;;
10687;SDS011;5392;42.688;23.298;2023-10-19T06:52:22;29.67;;;17.52;;
10687;SDS011;5392;42.688;23.298;2023-10-19T06:54:49;21.45;;;17.15;;
10687;SDS011;5392;42.688;23.298;2023-10-19T06:57:15;27.80;;;16.60;;
10687;SDS011;5392;42.688;23.298;2023-10-19T06:59:42;19.42;;;13.55;;
10687;SDS011;5392;42.688;23.298;2023-10-19T07:02:09;15.82;;;13.20;;
10687;SDS011;5392;42.688;23.298;2023-10-19T07:04:36;22.98;;;14.65;;
10687;SDS011;5392;42.688;23.298;2023-10-19T07:07:02;10.65;;;9.15;;
10687;SDS011;5392;42.688;23.298;2023-10-19T07:09:30;8.25;;;7.45;;
10687;SDS011;5392;42.688;23.298;2023-10-19T07:11:57;10.55;;;7.70;;
10687;SDS011;5392;42.688;23.298;2023-10-19T07:14:24;8.05;;;7.45;;
10687;SDS011;5392;42.688;23.298;2023-10-19T07:16:51;8.68;;;7.97;;
10687;SDS011;5392;42.688;23.298;2023-10-19T07:19:18;9.38;;;8.57;;
10687;SDS011;5392;42.688;23.298;2023-10-19T07:21:45;9.55;;;8.70;;
10687;SDS011;5392;42.688;23.298;2023-10-19T07:24:15;10.20;;;9.00;;
10687;SDS011;5392;42.688;23.298;2023-10-19T07:26:45;10.15;;;8.93;;
10687;SDS011;5392;42.688;23.298;2023-10-19T07:29:20;14.18;;;10.07;;
10687;SDS011;5392;42.688;23.298;2023-10-19T07:31:46;10.35;;;8.65;;
10687;SDS011;5392;42.688;23.298;2023-10-19T07:34:13;10.90;;;8.98;;
10687;SDS011;5392;42.688;23.298;2023-10-19T07:36:42;10.93;;;9.45;;
10687;SDS011;5392;42.688;23.298;2023-10-19T07:39:11;10.55;;;9.35;;
10687;SDS011;5392;42.688;23.298;2023-10-19T07:41:45;9.52;;;8.73;;
10687;SDS011;5392;42.688;23.298;2023-10-19T07:44:12;9.85;;;8.95;;
10687;SDS011;5392;42.688;23.298;2023-10-19T07:46:39;12.60;;;10.57;;
10687;SDS011;5392;42.688;23.298;2023-10-19T07:49:06;13.50;;;12.00;;
10687;SDS011;5392;42.688;23.298;2023-10-19T07:54:19;16.42;;;11.98;;
10687;SDS011;5392;42.688;23.298;2023-10-19T07:56:47;14.50;;;12.73;;
10687;SDS011;5392;42.688;23.298;2023-10-19T07:59:16;15.80;;;12.75;;
10687;SDS011;5392;42.688;23.298;2023-10-19T08:01:42;12.25;;;11.13;;
10687;SDS011;5392;42.688;23.298;2023-10-19T08:04:09;14.15;;;11.23;;
10687;SDS011;5392;42.688;23.298;2023-10-19T08:06:36;16.60;;;13.07;;
10687;SDS011;5392;42.688;23.298;2023-10-19T08:09:03;16.98;;;12.60;;
10687;SDS011;5392;42.688;23.298;2023-10-19T08:11:31;15.70;;;13.70;;
10687;SDS011;5392;42.688;23.298;2023-10-19T08:13:57;20.55;;;14.60;;
10687;SDS011;5392;42.688;23.298;2023-10-19T08:16:26;18.80;;;16.67;;
10687;SDS011;5392;42.688;23.298;2023-10-19T08:18:54;24.15;;;18.00;;
10687;SDS011;5392;42.688;23.298;2023-10-19T08:21:22;18.85;;;16.80;;
10687;SDS011;5392;42.688;23.298;2023-10-19T08:23:49;21.90;;;17.20;;
10687;SDS011;5392;42.688;23.298;2023-10-19T08:26:16;27.83;;;18.58;;
10687;SDS011;5392;42.688;23.298;2023-10-19T08:28:42;22.13;;;18.38;;
10687;SDS011;5392;42.688;23.298;2023-10-19T08:31:09;22.63;;;18.25;;
10687;SDS011;5392;42.688;23.298;2023-10-19T08:33:36;19.50;;;16.50;;
10687;SDS011;5392;42.688;23.298;2023-10-19T08:36:05;19.02;;;16.75;;
10687;SDS011;5392;42.688;23.298;2023-10-19T08:38:32;20.73;;;17.92;;
10687;SDS011;5392;42.688;23.298;2023-10-19T08:40:59;21.67;;;18.55;;
10687;SDS011;5392;42.688;23.298;2023-10-19T08:43:26;29.77;;;20.55;;
10687;SDS011;5392;42.688;23.298;2023-10-19T08:45:54;18.42;;;16.55;;
10687;SDS011;5392;42.688;23.298;2023-10-19T08:48:22;23.25;;;17.00;;
10687;SDS011;5392;42.688;23.298;2023-10-19T08:50:49;17.13;;;15.25;;
10687;SDS011;5392;42.688;23.298;2023-10-19T08:53:15;21.58;;;16.63;;
10687;SDS011;5392;42.688;23.298;2023-10-19T08:55:46;19.80;;;16.00;;
10687;SDS011;5392;42.688;23.298;2023-10-19T08:58:16;16.15;;;14.50;;
10687;SDS011;5392;42.688;23.298;2023-10-19T09:00:49;15.60;;;13.98;;
10687;SDS011;5392;42.688;23.298;2023-10-19T09:03:18;15.13;;;13.00;;
10687;SDS011;5392;42.688;23.298;2023-10-19T09:05:45;12.32;;;11.07;;
10687;SDS011;5392;42.688;23.298;2023-10-19T09:08:14;12.32;;;11.13;;
10687;SDS011;5392;42.688;23.298;2023-10-19T09:10:42;11.07;;;10.07;;
10687;SDS011;5392;42.688;23.298;2023-10-19T09:13:12;11.95;;;10.88;;
10687;SDS011;5392;42.688;23.298;2023-10-19T09:15:41;15.05;;;10.55;;
10687;SDS011;5392;42.688;23.298;2023-10-19T09:18:21;8.18;;;7.38;;
10687;SDS011;5392;42.688;23.298;2023-10-19T09:20:49;9.75;;;8.77;;
10687;SDS011;5392;42.688;23.298;2023-10-19T09:23:23;7.07;;;6.47;;
10687;SDS011;5392;42.688;23.298;2023-10-19T09:25:52;7.85;;;7.15;;
10687;SDS011;5392;42.688;23.298;2023-10-19T09:28:22;8.13;;;7.45;;
10687;SDS011;5392;42.688;23.298;2023-10-19T09:30:50;6.57;;;6.13;;
10687;SDS011;5392;42.688;23.298;2023-10-19T09:33:17;6.80;;;6.30;;
10687;SDS011;5392;42.688;23.298;2023-10-19T09:35:48;7.07;;;6.57;;
10687;SDS011;5392;42.688;23.298;2023-10-19T09:38:15;7.32;;;6.82;;
10687;SDS011;5392;42.688;23.298;2023-10-19T09:40:42;6.97;;;6.47;;
10687;SDS011;5392;42.688;23.298;2023-10-19T09:43:15;6.93;;;6.53;;
10687;SDS011;5392;42.688;23.298;2023-10-19T09:45:45;6.22;;;5.80;;
10687;SDS011;5392;42.688;23.298;2023-10-19T09:48:16;5.85;;;5.45;;
10687;SDS011;5392;42.688;23.298;2023-10-19T09:50:50;6.75;;;6.25;;
10687;SDS011;5392;42.688;23.298;2023-10-19T09:53:18;7.65;;;7.00;;
10687;SDS011;5392;42.688;23.298;2023-10-19T09:55:44;7.55;;;6.90;;
10687;SDS011;5392;42.688;23.298;2023-10-19T09:58:15;7.05;;;6.47;;
10687;SDS011;5392;42.688;23.298;2023-10-19T10:00:43;7.30;;;6.70;;
10687;SDS011;5392;42.688;23.298;2023-10-19T10:05:58;6.68;;;6.25;;
10687;SDS011;5392;42.688;23.298;2023-10-19T10:10:52;7.53;;;6.85;;
10687;SDS011;5392;42.688;23.298;2023-10-19T10:15:57;7.97;;;7.28;;
10687;SDS011;5392;42.688;23.298;2023-10-19T10:18:24;8.07;;;7.28;;
10687;SDS011;5392;42.688;23.298;2023-10-19T10:23:43;10.18;;;6.65;;
10687;SDS011;5392;42.688;23.298;2023-10-19T10:26:13;12.15;;;9.55;;
10687;SDS011;5392;42.688;23.298;2023-10-19T10:28:40;7.28;;;6.75;;
10687;SDS011;5392;42.688;23.298;2023-10-19T10:33:43;8.80;;;7.90;;
10687;SDS011;5392;42.688;23.298;2023-10-19T10:36:14;6.28;;;5.95;;
10687;SDS011;5392;42.688;23.298;2023-10-19T10:38:43;7.10;;;6.53;;
10687;SDS011;5392;42.688;23.298;2023-10-19T10:41:11;7.07;;;6.57;;
10687;SDS011;5392;42.688;23.298;2023-10-19T10:43:56;6.75;;;6.28;;
10687;SDS011;5392;42.688;23.298;2023-10-19T10:46:26;7.28;;;6.78;;
10687;SDS011;5392;42.688;23.298;2023-10-19T10:48:55;5.70;;;5.47;;
10687;SDS011;5392;42.688;23.298;2023-10-19T10:51:23;5.93;;;5.53;;
10687;SDS011;5392;42.688;23.298;2023-10-19T10:53:50;6.25;;;5.75;;
10687;SDS011;5392;42.688;23.298;2023-10-19T10:56:18;6.03;;;5.63;;
10687;SDS011;5392;42.688;23.298;2023-10-19T10:58:45;5.57;;;5.28;;
10687;SDS011;5392;42.688;23.298;2023-10-19T11:01:12;6.00;;;5.40;;
10687;SDS011;5392;42.688;23.298;2023-10-19T11:03:42;5.90;;;5.50;;
10687;SDS011;5392;42.688;23.298;2023-10-19T11:06:09;5.13;;;4.82;;
10687;SDS011;5392;42.688;23.298;2023-10-19T11:08:36;4.97;;;4.57;;
10687;SDS011;5392;42.688;23.298;2023-10-19T11:11:06;4.75;;;4.35;;
10687;SDS011;5392;42.688;23.298;2023-10-19T11:13:33;5.47;;;4.53;;
10687;SDS011;5392;42.688;23.298;2023-10-19T11:16:02;4.80;;;4.40;;
10687;SDS011;5392;42.688;23.298;2023-10-19T11:20:56;5.07;;;4.43;;
10687;SDS011;5392;42.688;23.298;2023-10-19T11:26:02;5.63;;;5.22;;
10687;SDS011;5392;42.688;23.298;2023-10-19T11:28:31;5.22;;;4.93;;
10687;SDS011;5392;42.688;23.298;2023-10-19T11:33:44;4.70;;;4.32;;
10687;SDS011;5392;42.688;23.298;2023-10-19T11:36:11;5.57;;;5.07;;
10687;SDS011;5392;42.688;23.298;2023-10-19T11:38:41;4.72;;;4.40;;
10687;SDS011;5392;42.688;23.298;2023-10-19T11:41:09;5.35;;;4.93;;
10687;SDS011;5392;42.688;23.298;2023-10-19T11:43:36;5.50;;;5.20;;
10687;SDS011;5392;42.688;23.298;2023-10-19T11:46:03;4.47;;;4.13;;
10687;SDS011;5392;42.688;23.298;2023-10-19T11:48:34;4.60;;;4.30;;
10687;SDS011;5392;42.688;23.298;2023-10-19T11:51:02;5.45;;;4.88;;
10687;SDS011;5392;42.688;23.298;2023-10-19T11:53:33;5.07;;;4.70;;
10687;SDS011;5392;42.688;23.298;2023-10-19T11:56:01;4.75;;;4.53;;
10687;SDS011;5392;42.688;23.298;2023-10-19T11:58:28;5.38;;;4.97;;
10687;SDS011;5392;42.688;23.298;2023-10-19T12:00:55;4.90;;;4.50;;
10687;SDS011;5392;42.688;23.298;2023-10-19T12:03:21;4.38;;;4.13;;
10687;SDS011;5392;42.688;23.298;2023-10-19T12:05:48;3.95;;;3.65;;
10687;SDS011;5392;42.688;23.298;2023-10-19T12:08:15;4.38;;;4.07;;
10687;SDS011;5392;42.688;23.298;2023-10-19T12:10:41;4.20;;;4.00;;
10687;SDS011;5392;42.688;23.298;2023-10-19T12:13:08;4.43;;;4.07;;
10687;SDS011;5392;42.688;23.298;2023-10-19T12:15:36;4.85;;;4.55;;
10687;SDS011;5392;42.688;23.298;2023-10-19T12:18:02;5.80;;;4.32;;
10687;SDS011;5392;42.688;23.298;2023-10-19T12:20:29;3.78;;;3.67;;
10687;SDS011;5392;42.688;23.298;2023-10-19T12:22:59;3.55;;;3.28;;
10687;SDS011;5392;42.688;23.298;2023-10-19T12:25:26;4.03;;;3.67;;
10687;SDS011;5392;42.688;23.298;2023-10-19T12:28:08;3.75;;;3.55;;
10687;SDS011;5392;42.688;23.298;2023-10-19T12:30:40;3.97;;;3.67;;
10687;SDS011;5392;42.688;23.298;2023-10-19T12:33:07;4.47;;;4.18;;
10687;SDS011;5392;42.688;23.298;2023-10-19T12:35:38;3.55;;;3.45;;
10687;SDS011;5392;42.688;23.298;2023-10-19T12:38:31;3.10;;;2.75;;
10687;SDS011;5392;42.688;23.298;2023-10-19T12:40:59;3.05;;;2.95;;
10687;SDS011;5392;42.688;23.298;2023-10-19T12:43:25;2.85;;;2.70;;
10687;SDS011;5392;42.688;23.298;2023-10-19T12:45:52;3.05;;;2.95;;
10687;SDS011;5392;42.688;23.298;2023-10-19T12:48:24;3.38;;;2.92;;
10687;SDS011;5392;42.688;23.298;2023-10-19T12:51:04;3.45;;;3.30;;
10687;SDS011;5392;42.688;23.298;2023-10-19T12:53:33;3.17;;;3.08;;
10687;SDS011;5392;42.688;23.298;2023-10-19T12:56:01;4.18;;;3.88;;
10687;SDS011;5392;42.688;23.298;2023-10-19T12:58:29;4.32;;;3.70;;
10687;SDS011;5392;42.688;23.298;2023-10-19T13:00:56;3.42;;;3.20;;
10687;SDS011;5392;42.688;23.298;2023-10-19T13:03:22;3.63;;;3.42;;
10687;SDS011;5392;42.688;23.298;2023-10-19T13:05:50;3.65;;;3.55;;
10687;SDS011;5392;42.688;23.298;2023-10-19T13:08:17;4.88;;;3.33;;
10687;SDS011;5392;42.688;23.298;2023-10-19T13:10:46;3.42;;;3.15;;
10687;SDS011;5392;42.688;23.298;2023-10-19T13:13:14;5.43;;;3.97;;
10687;SDS011;5392;42.688;23.298;2023-10-19T13:15:44;3.13;;;3.03;;
10687;SDS011;5392;42.688;23.298;2023-10-19T13:18:12;2.83;;;2.65;;
10687;SDS011;5392;42.688;23.298;2023-10-19T13:20:54;5.63;;;2.97;;
10687;SDS011;5392;42.688;23.298;2023-10-19T13:23:20;3.55;;;3.25;;
10687;SDS011;5392;42.688;23.298;2023-10-19T13:25:50;1.95;;;1.95;;
10687;SDS011;5392;42.688;23.298;2023-10-19T13:28:19;2.30;;;2.20;;
10687;SDS011;5392;42.688;23.298;2023-10-19T13:30:48;2.50;;;2.40;;
10687;SDS011;5392;42.688;23.298;2023-10-19T13:33:15;2.35;;;2.15;;
10687;SDS011;5392;42.688;23.298;2023-10-19T13:35:43;2.38;;;2.28;;
10687;SDS011;5392;42.688;23.298;2023-10-19T13:38:10;2.05;;;1.95;;
10687;SDS011;5392;42.688;23.298;2023-10-19T13:40:38;2.65;;;2.17;;
10687;SDS011;5392;42.688;23.298;2023-10-19T13:43:05;1.52;;;1.52;;
10687;SDS011;5392;42.688;23.298;2023-10-19T13:45:33;4.18;;;2.15;;
10687;SDS011;5392;42.688;23.298;2023-10-19T13:48:01;3.45;;;1.45;;
10687;SDS011;5392;42.688;23.298;2023-10-19T13:50:27;3.88;;;2.20;;
10687;SDS011;5392;42.688;23.298;2023-10-19T13:52:56;1.90;;;1.75;;
10687;SDS011;5392;42.688;23.298;2023-10-19T13:55:27;2.42;;;1.92;;
10687;SDS011;5392;42.688;23.298;2023-10-19T13:57:54;2.53;;;2.33;;
10687;SDS011;5392;42.688;23.298;2023-10-19T14:00:22;5.72;;;2.75;;
10687;SDS011;5392;42.688;23.298;2023-10-19T14:03:01;2.20;;;2.05;;
10687;SDS011;5392;42.688;23.298;2023-10-19T14:05:38;2.35;;;2.20;;
10687;SDS011;5392;42.688;23.298;2023-10-19T14:08:05;4.25;;;2.00;;
10687;SDS011;5392;42.688;23.298;2023-10-19T14:10:33;5.60;;;2.25;;
10687;SDS011;5392;42.688;23.298;2023-10-19T14:12:59;2.45;;;1.92;;
10687;SDS011;5392;42.688;23.298;2023-10-19T14:15:26;1.80;;;1.70;;
10687;SDS011;5392;42.688;23.298;2023-10-19T14:17:55;3.42;;;2.53;;
10687;SDS011;5392;42.688;23.298;2023-10-19T14:20:22;2.33;;;2.10;;
10687;SDS011;5392;42.688;23.298;2023-10-19T14:22:49;4.63;;;1.98;;
10687;SDS011;5392;42.688;23.298;2023-10-19T14:25:17;4.72;;;1.33;;
10687;SDS011;5392;42.688;23.298;2023-10-19T14:27:49;3.13;;;1.35;;
10687;SDS011;5392;42.688;23.298;2023-10-19T14:30:17;2.58;;;1.85;;
10687;SDS011;5392;42.688;23.298;2023-10-19T14:32:46;3.47;;;2.78;;
10687;SDS011;5392;42.688;23.298;2023-10-19T14:35:16;1.50;;;1.38;;
10687;SDS011;5392;42.688;23.298;2023-10-19T14:37:45;2.67;;;1.50;;
10687;SDS011;5392;42.688;23.298;2023-10-19T14:40:12;1.98;;;1.85;;
10687;SDS011;5392;42.688;23.298;2023-10-19T14:42:41;3.25;;;2.47;;
10687;SDS011;5392;42.688;23.298;2023-10-19T14:45:11;5.18;;;2.58;;
10687;SDS011;5392;42.688;23.298;2023-10-19T14:47:40;3.47;;;2.15;;
10687;SDS011;5392;42.688;23.298;2023-10-19T14:50:10;6.50;;;2.20;;
10687;SDS011;5392;42.688;23.298;2023-10-19T14:52:37;5.22;;;2.17;;
10687;SDS011;5392;42.688;23.298;2023-10-19T14:55:05;2.55;;;1.98;;
10687;SDS011;5392;42.688;23.298;2023-10-19T14:57:34;4.18;;;2.85;;
10687;SDS011;5392;42.688;23.298;2023-10-19T15:00:00;4.38;;;2.00;;
10687;SDS011;5392;42.688;23.298;2023-10-19T15:03:01;1.70;;;1.55;;
10687;SDS011;5392;42.688;23.298;2023-10-19T15:05:28;2.35;;;1.77;;
10687;SDS011;5392;42.688;23.298;2023-10-19T15:07:55;5.72;;;2.60;;
10687;SDS011;5392;42.688;23.298;2023-10-19T15:10:22;6.93;;;2.20;;
10687;SDS011;5392;42.688;23.298;2023-10-19T15:12:49;2.67;;;2.40;;
10687;SDS011;5392;42.688;23.298;2023-10-19T15:15:16;3.75;;;2.35;;